sensor_id;sensor_type;location;lat;lon;timestamp;pressure;altitude;pressure_sealevel;temperature;humidity
70256;BME280;57669;52.624;-1.688;2022-09-09T00:00:24;99696.66;;;16.19;49.05
70256;BME280;57669;52.624;-1.688;2022-09-09T00:02:56;99700.64;;;15.24;50.92
70256;BME280;57669;52.624;-1.688;2022-09-09T00:05:21;99698.48;;;15.23;50.98
70256;BME280;57669;52.624;-1.688;2022-09-09T00:07:43;99697.44;;;15.46;50.53
70256;BME280;57669;52.624;-1.688;2022-09-09T00:10:16;99700.69;;;14.92;51.05
70256;BME280;57669;52.624;-1.688;2022-09-09T00:12:37;99698.61;;;15.57;50.31
70256;BME280;57669;52.624;-1.688;2022-09-09T00:15:01;99697.96;;;15.88;49.67
70256;BME280;57669;52.624;-1.688;2022-09-09T00:17:31;99705.00;;;15.56;50.74
70256;BME280;57669;52.624;-1.688;2022-09-09T00:19:51;99705.36;;;15.52;50.56
70256;BME280;57669;52.624;-1.688;2022-09-09T00:22:16;99703.35;;;15.14;51.18
70256;BME280;57669;52.624;-1.688;2022-09-09T00:24:43;99702.96;;;15.69;50.76
70256;BME280;57669;52.624;-1.688;2022-09-09T00:27:08;99701.01;;;16.07;50.26
70256;BME280;57669;52.624;-1.688;2022-09-09T00:29:34;99702.84;;;16.43;49.76
70256;BME280;57669;52.624;-1.688;2022-09-09T00:31:57;99707.60;;;16.26;50.27
70256;BME280;57669;52.624;-1.688;2022-09-09T00:34:23;99705.97;;;15.96;50.81
70256;BME280;57669;52.624;-1.688;2022-09-09T00:36:47;99709.85;;;15.55;51.28
70256;BME280;57669;52.624;-1.688;2022-09-09T00:39:20;99710.75;;;15.81;50.37
70256;BME280;57669;52.624;-1.688;2022-09-09T00:41:48;99709.07;;;16.34;50.30
70256;BME280;57669;52.624;-1.688;2022-09-09T00:44:15;99706.31;;;15.07;52.60
70256;BME280;57669;52.624;-1.688;2022-09-09T00:49:01;99707.47;;;15.86;50.94
70256;BME280;57669;52.624;-1.688;2022-09-09T00:51:29;99702.20;;;15.59;51.00
70256;BME280;57669;52.624;-1.688;2022-09-09T00:53:57;99703.43;;;15.93;50.03
70256;BME280;57669;52.624;-1.688;2022-09-09T00:56:14;99705.31;;;15.83;50.53
70256;BME280;57669;52.624;-1.688;2022-09-09T00:58:38;99705.79;;;15.23;51.63
70256;BME280;57669;52.624;-1.688;2022-09-09T01:01:06;99708.30;;;15.68;50.70
70256;BME280;57669;52.624;-1.688;2022-09-09T01:03:34;99705.44;;;15.61;50.58
70256;BME280;57669;52.624;-1.688;2022-09-09T01:06:11;99699.90;;;15.43;50.54
70256;BME280;57669;52.624;-1.688;2022-09-09T01:08:33;99699.29;;;14.87;51.47
70256;BME280;57669;52.624;-1.688;2022-09-09T01:10:50;99699.14;;;15.14;51.53
70256;BME280;57669;52.624;-1.688;2022-09-09T01:13:16;99702.58;;;15.00;51.31
70256;BME280;57669;52.624;-1.688;2022-09-09T01:15:39;99701.98;;;15.58;50.24
70256;BME280;57669;52.624;-1.688;2022-09-09T01:18:06;99708.51;;;15.13;51.86
70256;BME280;57669;52.624;-1.688;2022-09-09T01:20:32;99708.57;;;15.43;51.55
70256;BME280;57669;52.624;-1.688;2022-09-09T01:23:07;99707.09;;;15.52;51.73
70256;BME280;57669;52.624;-1.688;2022-09-09T01:25:29;99706.54;;;15.49;51.87
70256;BME280;57669;52.624;-1.688;2022-09-09T01:27:47;99709.11;;;16.06;51.00
70256;BME280;57669;52.624;-1.688;2022-09-09T01:30:13;99712.94;;;16.26;50.79
70256;BME280;57669;52.624;-1.688;2022-09-09T01:32:40;99712.17;;;16.58;50.81
70256;BME280;57669;52.624;-1.688;2022-09-09T01:35:03;99711.79;;;16.25;51.20
70256;BME280;57669;52.624;-1.688;2022-09-09T01:37:28;99709.27;;;16.09;51.15
70256;BME280;57669;52.624;-1.688;2022-09-09T01:39:54;99706.61;;;16.20;50.90
70256;BME280;57669;52.624;-1.688;2022-09-09T01:42:19;99703.50;;;16.38;50.92
70256;BME280;57669;52.624;-1.688;2022-09-09T01:44:44;99705.95;;;16.45;50.80
70256;BME280;57669;52.624;-1.688;2022-09-09T01:47:10;99707.50;;;16.15;51.36
70256;BME280;57669;52.624;-1.688;2022-09-09T01:49:36;99705.18;;;16.37;51.12
70256;BME280;57669;52.624;-1.688;2022-09-09T01:52:02;99700.33;;;16.24;50.87
70256;BME280;57669;52.624;-1.688;2022-09-09T01:54:28;99701.48;;;15.41;52.01
70256;BME280;57669;52.624;-1.688;2022-09-09T01:57:00;99701.95;;;16.00;51.50
70256;BME280;57669;52.624;-1.688;2022-09-09T01:59:27;99701.16;;;16.10;51.53
70256;BME280;57669;52.624;-1.688;2022-09-09T02:01:54;99702.05;;;15.84;52.46
70256;BME280;57669;52.624;-1.688;2022-09-09T02:04:18;99701.65;;;15.68;53.49
70256;BME280;57669;52.624;-1.688;2022-09-09T02:06:36;99706.38;;;15.14;53.66
70256;BME280;57669;52.624;-1.688;2022-09-09T02:09:02;99709.02;;;16.23;52.55
70256;BME280;57669;52.624;-1.688;2022-09-09T02:11:27;99704.68;;;15.55;53.91
70256;BME280;57669;52.624;-1.688;2022-09-09T02:13:53;99707.05;;;15.97;53.07
70256;BME280;57669;52.624;-1.688;2022-09-09T02:16:20;99711.59;;;15.86;53.32
70256;BME280;57669;52.624;-1.688;2022-09-09T02:18:44;99708.44;;;15.45;53.64
70256;BME280;57669;52.624;-1.688;2022-09-09T02:21:07;99712.36;;;15.61;52.73
70256;BME280;57669;52.624;-1.688;2022-09-09T02:23:33;99713.18;;;15.75;52.33
70256;BME280;57669;52.624;-1.688;2022-09-09T02:28:26;99721.47;;;15.94;52.28
70256;BME280;57669;52.624;-1.688;2022-09-09T02:30:50;99724.90;;;16.06;51.99
70256;BME280;57669;52.624;-1.688;2022-09-09T02:33:14;99727.72;;;16.37;51.58
70256;BME280;57669;52.624;-1.688;2022-09-09T02:35:42;99730.84;;;16.53;51.31
70256;BME280;57669;52.624;-1.688;2022-09-09T02:38:10;99731.71;;;16.52;51.41
70256;BME280;57669;52.624;-1.688;2022-09-09T02:40:31;99730.64;;;16.32;51.81
70256;BME280;57669;52.624;-1.688;2022-09-09T02:42:57;99731.05;;;16.73;51.13
70256;BME280;57669;52.624;-1.688;2022-09-09T02:45:26;99726.28;;;16.42;51.93
70256;BME280;57669;52.624;-1.688;2022-09-09T02:47:52;99725.82;;;16.70;51.42
70256;BME280;57669;52.624;-1.688;2022-09-09T02:50:17;99725.90;;;16.74;51.84
70256;BME280;57669;52.624;-1.688;2022-09-09T02:52:48;99726.77;;;16.38;52.21
70256;BME280;57669;52.624;-1.688;2022-09-09T02:55:08;99725.54;;;16.11;52.85
70256;BME280;57669;52.624;-1.688;2022-09-09T02:57:30;99731.21;;;16.14;52.95
70256;BME280;57669;52.624;-1.688;2022-09-09T02:59:57;99731.00;;;16.18;52.73
70256;BME280;57669;52.624;-1.688;2022-09-09T03:02:20;99729.53;;;16.33;52.57
70256;BME280;57669;52.624;-1.688;2022-09-09T03:04:45;99727.08;;;16.19;52.82
70256;BME280;57669;52.624;-1.688;2022-09-09T03:07:11;99728.49;;;16.45;52.32
70256;BME280;57669;52.624;-1.688;2022-09-09T03:09:36;99723.27;;;16.40;53.02
70256;BME280;57669;52.624;-1.688;2022-09-09T03:12:01;99727.56;;;16.82;51.70
70256;BME280;57669;52.624;-1.688;2022-09-09T03:14:26;99728.50;;;15.77;53.55
70256;BME280;57669;52.624;-1.688;2022-09-09T03:16:52;99729.48;;;16.12;53.88
70256;BME280;57669;52.624;-1.688;2022-09-09T03:19:17;99726.27;;;15.88;53.82
70256;BME280;57669;52.624;-1.688;2022-09-09T03:21:47;99730.24;;;16.48;52.61
70256;BME280;57669;52.624;-1.688;2022-09-09T03:24:07;99729.84;;;16.23;54.11
70256;BME280;57669;52.624;-1.688;2022-09-09T03:26:33;99727.24;;;15.96;53.61
70256;BME280;57669;52.624;-1.688;2022-09-09T03:28:58;99733.20;;;15.92;53.64
70256;BME280;57669;52.624;-1.688;2022-09-09T03:31:23;99734.76;;;16.35;52.93
70256;BME280;57669;52.624;-1.688;2022-09-09T03:33:49;99734.08;;;16.33;52.63
70256;BME280;57669;52.624;-1.688;2022-09-09T03:36:14;99735.25;;;15.87;53.66
70256;BME280;57669;52.624;-1.688;2022-09-09T03:38:40;99732.69;;;16.28;52.82
70256;BME280;57669;52.624;-1.688;2022-09-09T03:41:05;99739.53;;;15.55;54.47
70256;BME280;57669;52.624;-1.688;2022-09-09T03:43:31;99740.37;;;15.22;55.25
70256;BME280;57669;52.624;-1.688;2022-09-09T03:45:56;99745.89;;;14.87;56.02
70256;BME280;57669;52.624;-1.688;2022-09-09T03:48:22;99747.49;;;15.61;54.61
70256;BME280;57669;52.624;-1.688;2022-09-09T03:50:48;99747.76;;;15.62;54.76
70256;BME280;57669;52.624;-1.688;2022-09-09T03:53:14;99750.61;;;15.90;54.14
70256;BME280;57669;52.624;-1.688;2022-09-09T03:55:38;99745.90;;;15.43;55.09
70256;BME280;57669;52.624;-1.688;2022-09-09T03:58:03;99745.70;;;15.58;54.79
70256;BME280;57669;52.624;-1.688;2022-09-09T04:00:29;99743.90;;;16.11;53.71
70256;BME280;57669;52.624;-1.688;2022-09-09T04:02:54;99747.91;;;15.83;54.35
70256;BME280;57669;52.624;-1.688;2022-09-09T04:05:20;99747.92;;;15.97;53.91
70256;BME280;57669;52.624;-1.688;2022-09-09T04:07:45;99745.18;;;16.22;53.51
70256;BME280;57669;52.624;-1.688;2022-09-09T04:10:10;99749.73;;;16.45;53.07
70256;BME280;57669;52.624;-1.688;2022-09-09T04:12:36;99751.99;;;16.08;53.38
70256;BME280;57669;52.624;-1.688;2022-09-09T04:15:07;99754.33;;;16.16;53.67
70256;BME280;57669;52.624;-1.688;2022-09-09T04:17:27;99755.75;;;15.73;54.57
70256;BME280;57669;52.624;-1.688;2022-09-09T04:19:52;99757.61;;;16.05;53.95
70256;BME280;57669;52.624;-1.688;2022-09-09T04:24:43;99760.63;;;16.14;53.86
70256;BME280;57669;52.624;-1.688;2022-09-09T04:27:08;99759.29;;;16.39;53.43
70256;BME280;57669;52.624;-1.688;2022-09-09T04:29:34;99762.22;;;16.53;53.18
70256;BME280;57669;52.624;-1.688;2022-09-09T04:32:00;99763.25;;;16.35;53.14
70256;BME280;57669;52.624;-1.688;2022-09-09T04:36:50;99769.71;;;16.59;52.91
70256;BME280;57669;52.624;-1.688;2022-09-09T04:39:16;99770.47;;;16.56;52.75
70256;BME280;57669;52.624;-1.688;2022-09-09T04:41:41;99772.82;;;16.57;52.99
70256;BME280;57669;52.624;-1.688;2022-09-09T04:44:06;99778.07;;;16.01;54.27
70256;BME280;57669;52.624;-1.688;2022-09-09T04:46:31;99779.94;;;15.78;54.71
70256;BME280;57669;52.624;-1.688;2022-09-09T04:48:57;99782.81;;;15.79;54.85
70256;BME280;57669;52.624;-1.688;2022-09-09T04:51:22;99783.70;;;15.52;55.95
70256;BME280;57669;52.624;-1.688;2022-09-09T04:53:47;99783.64;;;15.56;55.31
70256;BME280;57669;52.624;-1.688;2022-09-09T04:56:15;99785.12;;;15.61;55.26
70256;BME280;57669;52.624;-1.688;2022-09-09T04:58:39;99786.88;;;15.82;54.65
70256;BME280;57669;52.624;-1.688;2022-09-09T05:01:06;99784.78;;;15.46;56.04
70256;BME280;57669;52.624;-1.688;2022-09-09T05:03:29;99783.01;;;15.65;55.00
70256;BME280;57669;52.624;-1.688;2022-09-09T05:06:03;99788.07;;;15.78;54.79
70256;BME280;57669;52.624;-1.688;2022-09-09T05:08:20;99784.02;;;15.96;54.50
70256;BME280;57669;52.624;-1.688;2022-09-09T05:10:46;99783.45;;;16.28;53.86
70256;BME280;57669;52.624;-1.688;2022-09-09T05:13:11;99788.82;;;16.42;53.51
70256;BME280;57669;52.624;-1.688;2022-09-09T05:15:36;99789.75;;;16.59;52.77
70256;BME280;57669;52.624;-1.688;2022-09-09T05:18:02;99789.28;;;16.70;52.62
70256;BME280;57669;52.624;-1.688;2022-09-09T05:20:28;99788.59;;;16.66;53.31
70256;BME280;57669;52.624;-1.688;2022-09-09T05:22:53;99791.93;;;16.47;53.06
70256;BME280;57669;52.624;-1.688;2022-09-09T05:25:18;99794.37;;;16.91;52.77
70256;BME280;57669;52.624;-1.688;2022-09-09T05:27:44;99793.40;;;16.11;53.97
70256;BME280;57669;52.624;-1.688;2022-09-09T05:30:10;99797.12;;;16.45;52.76
70256;BME280;57669;52.624;-1.688;2022-09-09T05:32:34;99799.54;;;16.99;52.21
70256;BME280;57669;52.624;-1.688;2022-09-09T05:35:00;99796.82;;;16.69;52.50
70256;BME280;57669;52.624;-1.688;2022-09-09T05:37:25;99797.63;;;16.79;52.54
70256;BME280;57669;52.624;-1.688;2022-09-09T05:42:16;99802.97;;;16.96;52.07
70256;BME280;57669;52.624;-1.688;2022-09-09T05:44:42;99800.16;;;17.62;50.86
70256;BME280;57669;52.624;-1.688;2022-09-09T05:47:07;99807.09;;;17.47;51.52
70256;BME280;57669;52.624;-1.688;2022-09-09T05:49:33;99808.19;;;16.90;52.45
70256;BME280;57669;52.624;-1.688;2022-09-09T05:51:59;99807.94;;;17.30;51.56
70256;BME280;57669;52.624;-1.688;2022-09-09T05:54:24;99811.38;;;16.99;51.71
70256;BME280;57669;52.624;-1.688;2022-09-09T05:56:50;99812.13;;;17.48;51.25
70256;BME280;57669;52.624;-1.688;2022-09-09T05:59:15;99813.12;;;17.29;51.40
70256;BME280;57669;52.624;-1.688;2022-09-09T06:01:40;99815.62;;;17.09;52.01
70256;BME280;57669;52.624;-1.688;2022-09-09T06:04:07;99815.57;;;16.36;52.40
70256;BME280;57669;52.624;-1.688;2022-09-09T06:06:33;99816.59;;;16.86;51.99
70256;BME280;57669;52.624;-1.688;2022-09-09T06:09:02;99821.43;;;17.44;51.18
70256;BME280;57669;52.624;-1.688;2022-09-09T06:11:24;99823.71;;;16.97;52.12
70256;BME280;57669;52.624;-1.688;2022-09-09T06:13:48;99823.51;;;16.89;52.37
70256;BME280;57669;52.624;-1.688;2022-09-09T06:18:39;99829.02;;;17.13;51.47
70256;BME280;57669;52.624;-1.688;2022-09-09T06:21:06;99830.43;;;17.18;51.34
70256;BME280;57669;52.624;-1.688;2022-09-09T06:23:29;99829.77;;;16.80;51.87
70256;BME280;57669;52.624;-1.688;2022-09-09T06:26:02;99828.14;;;16.20;53.14
70256;BME280;57669;52.624;-1.688;2022-09-09T06:28:20;99837.74;;;16.65;52.06
70256;BME280;57669;52.624;-1.688;2022-09-09T06:30:46;99836.25;;;16.73;51.86
70256;BME280;57669;52.624;-1.688;2022-09-09T06:33:11;99838.23;;;16.21;53.39
70256;BME280;57669;52.624;-1.688;2022-09-09T06:35:37;99837.59;;;15.25;55.87
70256;BME280;57669;52.624;-1.688;2022-09-09T06:38:02;99845.12;;;15.70;55.13
70256;BME280;57669;52.624;-1.688;2022-09-09T06:40:27;99848.12;;;15.72;55.54
70256;BME280;57669;52.624;-1.688;2022-09-09T06:42:53;99853.59;;;16.05;54.95
70256;BME280;57669;52.624;-1.688;2022-09-09T06:45:19;99855.29;;;15.73;55.68
70256;BME280;57669;52.624;-1.688;2022-09-09T06:47:44;99863.64;;;16.01;54.90
70256;BME280;57669;52.624;-1.688;2022-09-09T06:50:10;99863.46;;;16.22;53.99
70256;BME280;57669;52.624;-1.688;2022-09-09T06:52:35;99866.02;;;16.17;54.74
70256;BME280;57669;52.624;-1.688;2022-09-09T06:55:00;99865.05;;;16.60;53.50
70256;BME280;57669;52.624;-1.688;2022-09-09T06:57:25;99861.15;;;16.41;53.68
70256;BME280;57669;52.624;-1.688;2022-09-09T06:59:51;99861.96;;;16.41;54.23
70256;BME280;57669;52.624;-1.688;2022-09-09T07:02:16;99866.08;;;16.44;53.97
70256;BME280;57669;52.624;-1.688;2022-09-09T07:04:42;99869.26;;;16.00;55.08
70256;BME280;57669;52.624;-1.688;2022-09-09T07:09:33;99870.74;;;16.68;52.80
70256;BME280;57669;52.624;-1.688;2022-09-09T07:11:59;99873.73;;;16.91;52.40
70256;BME280;57669;52.624;-1.688;2022-09-09T07:14:24;99876.48;;;16.25;53.83
70256;BME280;57669;52.624;-1.688;2022-09-09T07:16:49;99881.61;;;16.33;54.14
70256;BME280;57669;52.624;-1.688;2022-09-09T07:19:15;99883.96;;;16.24;54.45
70256;BME280;57669;52.624;-1.688;2022-09-09T07:21:40;99883.79;;;15.61;55.43
70256;BME280;57669;52.624;-1.688;2022-09-09T07:24:05;99886.06;;;15.89;54.80
70256;BME280;57669;52.624;-1.688;2022-09-09T07:26:30;99892.99;;;16.37;53.87
70256;BME280;57669;52.624;-1.688;2022-09-09T07:28:56;99891.79;;;15.84;54.85
70256;BME280;57669;52.624;-1.688;2022-09-09T07:31:24;99898.82;;;15.91;55.56
70256;BME280;57669;52.624;-1.688;2022-09-09T07:33:47;99897.41;;;15.57;55.63
70256;BME280;57669;52.624;-1.688;2022-09-09T07:36:14;99893.70;;;16.13;53.96
70256;BME280;57669;52.624;-1.688;2022-09-09T07:38:39;99901.73;;;15.85;55.32
70256;BME280;57669;52.624;-1.688;2022-09-09T07:41:04;99899.72;;;15.82;54.89
70256;BME280;57669;52.624;-1.688;2022-09-09T07:43:27;99901.98;;;16.13;55.02
70256;BME280;57669;52.624;-1.688;2022-09-09T07:45:57;99901.65;;;15.92;54.95
70256;BME280;57669;52.624;-1.688;2022-09-09T07:48:18;99899.85;;;16.06;54.60
70256;BME280;57669;52.624;-1.688;2022-09-09T07:50:43;99907.23;;;15.45;56.43
70256;BME280;57669;52.624;-1.688;2022-09-09T07:53:08;99909.91;;;15.76;55.76
70256;BME280;57669;52.624;-1.688;2022-09-09T07:55:35;99903.21;;;16.09;55.27
70256;BME280;57669;52.624;-1.688;2022-09-09T07:57:59;99916.04;;;15.59;55.78
70256;BME280;57669;52.624;-1.688;2022-09-09T08:00:25;99911.18;;;16.08;54.29
70256;BME280;57669;52.624;-1.688;2022-09-09T08:02:56;99913.30;;;16.02;54.17
70256;BME280;57669;52.624;-1.688;2022-09-09T08:05:16;99915.24;;;15.99;54.99
70256;BME280;57669;52.624;-1.688;2022-09-09T08:07:42;99916.90;;;16.33;54.31
70256;BME280;57669;52.624;-1.688;2022-09-09T08:10:08;99918.16;;;16.15;55.94
70256;BME280;57669;52.624;-1.688;2022-09-09T08:12:33;99919.77;;;16.04;55.32
70256;BME280;57669;52.624;-1.688;2022-09-09T08:14:58;99923.25;;;16.47;54.86
70256;BME280;57669;52.624;-1.688;2022-09-09T08:17:24;99925.81;;;16.57;54.10
70256;BME280;57669;52.624;-1.688;2022-09-09T08:19:49;99927.95;;;16.78;54.50
70256;BME280;57669;52.624;-1.688;2022-09-09T08:22:14;99927.14;;;16.97;53.24
70256;BME280;57669;52.624;-1.688;2022-09-09T08:24:40;99924.27;;;17.18;53.27
70256;BME280;57669;52.624;-1.688;2022-09-09T08:27:05;99932.09;;;17.38;52.48
70256;BME280;57669;52.624;-1.688;2022-09-09T08:31:58;99933.62;;;17.35;50.72
70256;BME280;57669;52.624;-1.688;2022-09-09T08:34:24;99931.38;;;17.93;50.27
70256;BME280;57669;52.624;-1.688;2022-09-09T08:36:49;99934.89;;;17.76;50.47
70256;BME280;57669;52.624;-1.688;2022-09-09T08:39:15;99935.35;;;17.87;50.14
70256;BME280;57669;52.624;-1.688;2022-09-09T08:41:48;99937.37;;;18.06;49.70
70256;BME280;57669;52.624;-1.688;2022-09-09T08:44:08;99934.34;;;18.25;49.51
70256;BME280;57669;52.624;-1.688;2022-09-09T08:46:37;99937.77;;;17.97;49.82
70256;BME280;57669;52.624;-1.688;2022-09-09T08:48:58;99944.09;;;18.13;50.16
70256;BME280;57669;52.624;-1.688;2022-09-09T08:51:20;99947.80;;;18.30;49.78
70256;BME280;57669;52.624;-1.688;2022-09-09T08:53:48;99949.85;;;18.31;49.09
70256;BME280;57669;52.624;-1.688;2022-09-09T08:56:14;99952.67;;;18.39;48.42
70256;BME280;57669;52.624;-1.688;2022-09-09T08:58:42;99957.84;;;18.94;47.44
70256;BME280;57669;52.624;-1.688;2022-09-09T09:03:33;99959.55;;;18.05;49.27
70256;BME280;57669;52.624;-1.688;2022-09-09T09:05:59;99959.99;;;18.17;49.25
70256;BME280;57669;52.624;-1.688;2022-09-09T09:08:26;99967.49;;;18.54;48.00
70256;BME280;57669;52.624;-1.688;2022-09-09T09:10:46;99965.56;;;18.96;47.86
70256;BME280;57669;52.624;-1.688;2022-09-09T09:13:13;99974.53;;;18.32;48.59
70256;BME280;57669;52.624;-1.688;2022-09-09T09:15:37;99975.13;;;18.26;48.08
70256;BME280;57669;52.624;-1.688;2022-09-09T09:17:59;99978.93;;;19.30;46.53
70256;BME280;57669;52.624;-1.688;2022-09-09T09:20:31;99983.88;;;19.06;46.51
70256;BME280;57669;52.624;-1.688;2022-09-09T09:22:51;99985.24;;;19.35;45.83
70256;BME280;57669;52.624;-1.688;2022-09-09T09:25:17;99987.52;;;19.04;45.97
70256;BME280;57669;52.624;-1.688;2022-09-09T09:27:48;99990.67;;;19.25;45.99
70256;BME280;57669;52.624;-1.688;2022-09-09T09:30:15;99992.15;;;19.24;45.68
70256;BME280;57669;52.624;-1.688;2022-09-09T09:32:34;99997.59;;;19.84;45.34
70256;BME280;57669;52.624;-1.688;2022-09-09T09:34:57;99997.93;;;19.69;45.37
70256;BME280;57669;52.624;-1.688;2022-09-09T09:37:26;99998.50;;;18.98;46.48
70256;BME280;57669;52.624;-1.688;2022-09-09T09:39:46;100001.13;;;18.34;48.31
70256;BME280;57669;52.624;-1.688;2022-09-09T09:42:13;100008.41;;;18.56;46.82
70256;BME280;57669;52.624;-1.688;2022-09-09T09:44:36;100007.73;;;19.29;46.86
70256;BME280;57669;52.624;-1.688;2022-09-09T09:47:07;100010.29;;;18.91;45.71
70256;BME280;57669;52.624;-1.688;2022-09-09T09:49:27;100010.66;;;19.81;44.70
70256;BME280;57669;52.624;-1.688;2022-09-09T09:51:53;100018.59;;;19.48;45.27
70256;BME280;57669;52.624;-1.688;2022-09-09T09:54:24;100023.93;;;19.50;44.18
70256;BME280;57669;52.624;-1.688;2022-09-09T09:56:44;100022.82;;;19.61;44.60
70256;BME280;57669;52.624;-1.688;2022-09-09T10:01:35;100033.26;;;20.23;43.12
70256;BME280;57669;52.624;-1.688;2022-09-09T10:04:02;100033.71;;;19.17;44.70
70256;BME280;57669;52.624;-1.688;2022-09-09T10:06:32;100035.90;;;20.23;42.80
70256;BME280;57669;52.624;-1.688;2022-09-09T10:08:51;100036.39;;;20.73;42.31
70256;BME280;57669;52.624;-1.688;2022-09-09T10:11:28;100039.20;;;21.25;41.01
70256;BME280;57669;52.624;-1.688;2022-09-09T10:13:49;100034.01;;;20.11;41.86
70256;BME280;57669;52.624;-1.688;2022-09-09T10:16:21;100030.43;;;19.39;43.04
70256;BME280;57669;52.624;-1.688;2022-09-09T10:18:42;100038.36;;;18.59;44.69
70256;BME280;57669;52.624;-1.688;2022-09-09T10:21:06;100032.56;;;18.81;45.92
70256;BME280;57669;52.624;-1.688;2022-09-09T10:23:38;100029.42;;;19.27;44.39
70256;BME280;57669;52.624;-1.688;2022-09-09T10:26:05;100032.54;;;19.65;43.78
70256;BME280;57669;52.624;-1.688;2022-09-09T10:28:32;100034.78;;;19.74;43.02
70256;BME280;57669;52.624;-1.688;2022-09-09T10:30:49;100041.88;;;20.68;41.47
70256;BME280;57669;52.624;-1.688;2022-09-09T10:33:10;100042.14;;;20.58;41.33
70256;BME280;57669;52.624;-1.688;2022-09-09T10:35:35;100043.62;;;20.61;41.60
70256;BME280;57669;52.624;-1.688;2022-09-09T10:38:10;100039.79;;;20.65;41.58
70256;BME280;57669;52.624;-1.688;2022-09-09T10:40:32;100048.18;;;20.25;42.10
70256;BME280;57669;52.624;-1.688;2022-09-09T10:42:49;100042.32;;;19.19;43.19
70256;BME280;57669;52.624;-1.688;2022-09-09T10:45:17;100038.64;;;19.65;43.33
70256;BME280;57669;52.624;-1.688;2022-09-09T10:47:52;100039.92;;;19.62;42.87
70256;BME280;57669;52.624;-1.688;2022-09-09T10:50:18;100043.88;;;20.95;41.00
70256;BME280;57669;52.624;-1.688;2022-09-09T10:52:36;100046.25;;;21.15;40.23
70256;BME280;57669;52.624;-1.688;2022-09-09T10:55:01;100043.94;;;21.18;39.17
70256;BME280;57669;52.624;-1.688;2022-09-09T10:57:28;100041.15;;;21.69;38.86
70256;BME280;57669;52.624;-1.688;2022-09-09T10:59:52;100043.37;;;20.87;39.87
70256;BME280;57669;52.624;-1.688;2022-09-09T11:02:16;100049.45;;;20.00;41.95
70256;BME280;57669;52.624;-1.688;2022-09-09T11:04:41;100043.69;;;19.56;44.44
70256;BME280;57669;52.624;-1.688;2022-09-09T11:07:08;100044.40;;;20.07;43.73
70256;BME280;57669;52.624;-1.688;2022-09-09T11:09:34;100038.11;;;19.47;43.68
70256;BME280;57669;52.624;-1.688;2022-09-09T11:11:56;100035.57;;;19.73;43.23
70256;BME280;57669;52.624;-1.688;2022-09-09T11:14:26;100039.47;;;19.12;43.87
70256;BME280;57669;52.624;-1.688;2022-09-09T11:16:50;100047.98;;;20.74;41.29
70256;BME280;57669;52.624;-1.688;2022-09-09T11:19:15;100048.56;;;20.47;41.41
70256;BME280;57669;52.624;-1.688;2022-09-09T11:21:40;100050.96;;;21.23;39.39
70256;BME280;57669;52.624;-1.688;2022-09-09T11:24:05;100053.03;;;20.38;40.54
70256;BME280;57669;52.624;-1.688;2022-09-09T11:26:32;100051.05;;;21.61;38.60
70256;BME280;57669;52.624;-1.688;2022-09-09T11:29:03;100056.34;;;22.01;38.37
70256;BME280;57669;52.624;-1.688;2022-09-09T11:31:31;100060.96;;;21.26;39.13
70256;BME280;57669;52.624;-1.688;2022-09-09T11:33:58;100056.70;;;21.66;39.57
70256;BME280;57669;52.624;-1.688;2022-09-09T11:36:25;100054.82;;;21.32;39.27
70256;BME280;57669;52.624;-1.688;2022-09-09T11:38:40;100059.96;;;21.02;40.28
70256;BME280;57669;52.624;-1.688;2022-09-09T11:41:04;100063.79;;;20.42;41.01
70256;BME280;57669;52.624;-1.688;2022-09-09T11:43:30;100052.12;;;21.30;38.99
70256;BME280;57669;52.624;-1.688;2022-09-09T11:45:54;100064.66;;;21.24;40.99
70256;BME280;57669;52.624;-1.688;2022-09-09T11:48:23;100069.07;;;20.82;42.53
70256;BME280;57669;52.624;-1.688;2022-09-09T11:50:44;100073.01;;;20.87;40.88
70256;BME280;57669;52.624;-1.688;2022-09-09T11:53:18;100074.43;;;21.43;39.89
70256;BME280;57669;52.624;-1.688;2022-09-09T11:55:35;100064.74;;;22.24;38.77
70256;BME280;57669;52.624;-1.688;2022-09-09T11:58:02;100069.38;;;20.81;40.37
70256;BME280;57669;52.624;-1.688;2022-09-09T12:00:34;100071.56;;;21.24;38.71
70256;BME280;57669;52.624;-1.688;2022-09-09T12:02:51;100067.96;;;21.86;38.99
70256;BME280;57669;52.624;-1.688;2022-09-09T12:05:17;100070.30;;;20.05;42.66
70256;BME280;57669;52.624;-1.688;2022-09-09T12:07:49;100064.13;;;20.06;43.24
70256;BME280;57669;52.624;-1.688;2022-09-09T12:12:35;100062.65;;;19.67;43.76
70256;BME280;57669;52.624;-1.688;2022-09-09T12:17:26;100063.78;;;21.41;41.09
70256;BME280;57669;52.624;-1.688;2022-09-09T12:22:23;100056.75;;;22.41;38.50
70256;BME280;57669;52.624;-1.688;2022-09-09T12:24:45;100057.22;;;21.92;38.06
70256;BME280;57669;52.624;-1.688;2022-09-09T12:29:38;100049.96;;;23.78;35.67
70256;BME280;57669;52.624;-1.688;2022-09-09T12:32:01;100059.24;;;24.60;34.33
70256;BME280;57669;52.624;-1.688;2022-09-09T12:34:33;100057.78;;;22.24;37.64
70256;BME280;57669;52.624;-1.688;2022-09-09T12:36:54;100062.63;;;23.39;36.45
70256;BME280;57669;52.624;-1.688;2022-09-09T12:39:19;100068.05;;;23.32;36.28
70256;BME280;57669;52.624;-1.688;2022-09-09T12:41:39;100065.24;;;23.96;35.70
70256;BME280;57669;52.624;-1.688;2022-09-09T12:44:06;100067.72;;;22.07;37.02
70256;BME280;57669;52.624;-1.688;2022-09-09T12:46:34;100075.88;;;22.16;37.06
70256;BME280;57669;52.624;-1.688;2022-09-09T12:48:56;100071.64;;;22.11;37.01
70256;BME280;57669;52.624;-1.688;2022-09-09T12:51:27;100074.45;;;21.79;36.54
70256;BME280;57669;52.624;-1.688;2022-09-09T12:53:47;100070.28;;;21.49;37.63
70256;BME280;57669;52.624;-1.688;2022-09-09T12:56:19;100075.25;;;21.22;38.33
70256;BME280;57669;52.624;-1.688;2022-09-09T12:58:39;100080.81;;;20.98;38.46
70256;BME280;57669;52.624;-1.688;2022-09-09T13:01:06;100076.25;;;21.38;38.85
70256;BME280;57669;52.624;-1.688;2022-09-09T13:03:30;100073.75;;;21.79;37.97
70256;BME280;57669;52.624;-1.688;2022-09-09T13:05:58;100075.37;;;21.78;37.43
70256;BME280;57669;52.624;-1.688;2022-09-09T13:08:21;100078.68;;;23.10;35.50
70256;BME280;57669;52.624;-1.688;2022-09-09T13:10:49;100075.72;;;22.51;35.18